Time;durP1;ratioP1;P1;durP2;ratioP2;P2;SDS_P1;SDS_P2;PMS_P1;PMS_P2;Temp;Humidity;BMP_temperature;BMP_pressure;BME280_temperature;BME280_humidity;BME280_pressure;Samples;Min_cycle;Max_cycle;Signal;HPM_P1;HPM_P2
2022/07/10 00:01:42;;;;;;;2.60;2.40;;;;;;;15.67;64.79;100404.69;3635108;77;21473;-75
2022/07/10 00:06:34;;;;;;;3.42;3.08;;;;;;;15.60;64.79;100407.80;3600203;77;21947;-75
2022/07/10 00:11:27;;;;;;;3.37;2.65;;;;;;;15.53;64.87;100410.04;3622226;77;21185;-75
2022/07/10 00:16:19;;;;;;;2.98;2.65;;;;;;;15.48;65.08;100401.34;3598419;77;21099;-75
2022/07/10 00:21:11;;;;;;;4.67;2.55;;;;;;;15.51;65.36;100407.88;3607597;77;20957;-75
2022/07/10 00:26:03;;;;;;;2.90;2.55;;;;;;;15.46;65.45;100403.11;3606032;76;20989;-75
2022/07/10 00:30:55;;;;;;;2.70;2.33;;;;;;;15.43;65.74;100396.58;3582807;76;20949;-75
2022/07/10 00:35:47;;;;;;;2.52;2.30;;;;;;;15.49;66.19;100390.00;3608369;76;21053;-75
2022/07/10 00:40:40;;;;;;;6.42;2.47;;;;;;;15.47;66.22;100395.70;3661557;76;22030;-75
2022/07/10 00:45:32;;;;;;;2.92;2.58;;;;;;;15.49;66.36;100390.00;3560003;76;20933;-75
2022/07/10 00:50:24;;;;;;;2.62;2.10;;;;;;;15.50;66.23;100386.92;3631964;76;20996;-75
2022/07/10 00:55:16;;;;;;;3.40;2.52;;;;;;;15.46;66.29;100378.23;3576324;77;21483;-75
2022/07/10 01:00:11;;;;;;;2.92;2.62;;;;;;;15.37;66.26;100367.83;3659737;77;20997;-75
2022/07/10 01:05:04;;;;;;;3.40;2.47;;;;;;;15.29;66.46;100376.17;3616682;77;21455;-75
2022/07/10 01:09:56;;;;;;;3.30;2.42;;;;;;;15.19;66.45;100374.94;3606404;77;21008;-75
2022/07/10 01:14:48;;;;;;;3.85;2.25;;;;;;;15.12;66.64;100369.77;3628091;77;21099;-75
2022/07/10 01:19:40;;;;;;;2.65;2.10;;;;;;;15.08;66.66;100370.23;3622999;77;21981;-75
2022/07/10 01:24:33;;;;;;;2.37;1.70;;;;;;;15.06;66.68;100368.07;3633471;77;20894;-75
2022/07/10 01:29:25;;;;;;;1.82;1.62;;;;;;;15.04;66.91;100356.30;3588989;77;21721;-75
2022/07/10 01:34:18;;;;;;;5.55;2.08;;;;;;;15.05;66.99;100357.16;3650658;77;20883;-75
2022/07/10 01:39:10;;;;;;;3.37;2.40;;;;;;;15.01;67.03;100348.91;3665742;77;20957;-75
2022/07/10 01:44:03;;;;;;;2.95;1.98;;;;;;;14.99;67.16;100350.67;3625067;77;20954;-75
2022/07/10 01:48:56;;;;;;;2.35;1.82;;;;;;;14.98;67.28;100358.08;3661379;77;20945;-75
2022/07/10 01:53:49;;;;;;;4.15;2.05;;;;;;;14.90;67.28;100346.78;3620020;77;21128;-75
2022/07/10 01:58:41;;;;;;;1.67;1.57;;;;;;;14.86;67.40;100333.73;3655319;77;20967;-75
2022/07/10 02:08:44;;;;;;;6.95;2.00;;;;;;;14.76;67.53;100337.28;3623305;77;20964;-75
2022/07/10 02:13:36;;;;;;;2.30;1.72;;;;;;;14.73;67.86;100333.81;3636477;77;21451;-75
2022/07/10 02:18:29;;;;;;;3.92;1.90;;;;;;;14.64;67.77;100330.81;3665623;77;22072;-75
2022/07/10 02:23:21;;;;;;;3.12;2.52;;;;;;;14.54;67.97;100324.75;3694826;76;20913;-75
2022/07/10 02:28:13;;;;;;;2.45;1.65;;;;;;;14.46;68.13;100323.45;3631937;77;20899;-75
2022/07/10 02:33:05;;;;;;;2.98;1.60;;;;;;;14.39;68.12;100339.20;3574902;77;20992;-75
2022/07/10 02:37:57;;;;;;;1.92;1.75;;;;;;;14.20;68.33;100330.55;3660536;77;21377;-75
2022/07/10 02:42:49;;;;;;;3.08;2.08;;;;;;;14.18;68.65;100329.24;3631742;77;21400;-75
2022/07/10 02:47:41;;;;;;;2.00;1.80;;;;;;;14.20;68.80;100324.02;3626982;77;20926;-75
2022/07/10 02:52:33;;;;;;;1.90;1.80;;;;;;;14.21;69.08;100324.45;3628949;77;20904;-75
2022/07/10 02:57:25;;;;;;;2.87;1.98;;;;;;;14.28;69.21;100323.55;3616515;77;20902;-75
2022/07/10 03:02:17;;;;;;;2.08;1.87;;;;;;;14.29;69.35;100324.00;3633023;77;21002;-75
2022/07/10 03:07:09;;;;;;;3.67;2.10;;;;;;;14.32;69.33;100325.72;3599704;77;20893;-75
2022/07/10 03:12:02;;;;;;;2.00;1.87;;;;;;;14.35;69.35;100327.88;3657962;77;21024;-75
2022/07/10 03:16:54;;;;;;;2.22;1.80;;;;;;;14.43;69.57;100323.91;3617169;77;20971;-75
2022/07/10 03:21:46;;;;;;;2.30;2.08;;;;;;;14.45;69.54;100320.42;3604538;77;20953;-75
2022/07/10 03:26:38;;;;;;;2.20;1.95;;;;;;;14.55;69.58;100314.69;3638281;77;20920;-75
2022/07/10 03:31:31;;;;;;;2.15;1.90;;;;;;;14.61;69.52;100313.81;3613086;77;22224;-75
2022/07/10 03:36:23;;;;;;;3.35;1.98;;;;;;;14.66;69.74;100314.66;3635529;77;20969;-75
2022/07/10 03:41:16;;;;;;;3.90;2.20;;;;;;;14.77;70.01;100318.09;3591803;77;20918;-75
2022/07/10 03:46:08;;;;;;;3.05;1.95;;;;;;;14.93;70.02;100316.22;3630917;77;20993;-75
2022/07/10 03:51:00;;;;;;;2.98;1.87;;;;;;;15.11;69.91;100320.89;3592996;77;21264;-75
2022/07/10 03:55:53;;;;;;;2.60;1.80;;;;;;;15.18;69.83;100310.34;3646132;76;21108;-75
2022/07/10 04:00:46;;;;;;;5.87;2.12;;;;;;;15.25;69.72;100313.37;3592056;77;21194;-75
2022/07/10 04:05:38;;;;;;;2.50;2.30;;;;;;;15.31;69.74;100310.23;3601157;77;20900;-75
2022/07/10 04:10:31;;;;;;;4.97;2.80;;;;;;;15.46;69.79;100312.73;3640085;77;21503;-75
2022/07/10 04:15:24;;;;;;;4.45;2.27;;;;;;;15.63;69.60;100312.13;3672931;76;20977;-75
2022/07/10 04:20:17;;;;;;;3.62;2.27;;;;;;;15.80;69.51;100304.55;3601721;77;21494;-75
2022/07/10 04:25:11;;;;;;;4.90;2.40;;;;;;;15.85;68.94;100305.83;3655733;77;21538;-75
2022/07/10 04:30:05;;;;;;;4.22;2.58;;;;;;;15.94;68.75;100313.12;3636495;77;20915;-75
2022/07/10 04:34:57;;;;;;;6.05;2.62;;;;;;;16.10;68.58;100308.58;3630841;77;21535;-75
2022/07/10 04:39:50;;;;;;;4.95;1.90;;;;;;;16.38;67.93;100299.91;3651472;77;21421;-75
2022/07/10 04:44:42;;;;;;;3.52;2.17;;;;;;;16.48;67.31;100305.89;3631394;76;22009;-75
2022/07/10 04:49:34;;;;;;;3.90;2.27;;;;;;;16.58;66.56;100304.02;3626353;77;20959;-75
2022/07/10 04:54:26;;;;;;;3.22;1.85;;;;;;;16.72;66.22;100300.75;3655471;77;20965;-75
2022/07/10 04:59:19;;;;;;;3.00;2.00;;;;;;;16.91;65.75;100300.48;3595834;77;20952;-75
2022/07/10 05:04:11;;;;;;;3.75;1.87;;;;;;;17.02;64.63;100297.23;3668176;77;21024;-75
2022/07/10 05:09:03;;;;;;;3.05;2.08;;;;;;;17.07;64.42;100300.66;3628053;77;21441;-75
2022/07/10 05:13:56;;;;;;;4.28;2.20;;;;;;;17.13;63.74;100297.05;3666540;77;20979;-75
2022/07/10 05:18:48;;;;;;;5.70;2.65;;;;;;;17.18;63.48;100296.99;3632169;77;20942;-75
2022/07/10 05:23:41;;;;;;;3.65;1.80;;;;;;;17.26;63.18;100292.45;3628170;77;20935;-75
2022/07/10 05:28:33;;;;;;;3.17;1.98;;;;;;;17.37;62.91;100293.16;3642328;77;20926;-75
2022/07/10 05:33:28;;;;;;;7.72;3.33;;;;;;;17.45;62.69;100289.92;3636565;76;21471;-75
2022/07/10 05:38:21;;;;;;;4.80;1.60;;;;;;;17.64;62.43;100284.34;3628302;77;20961;-75
2022/07/10 05:43:13;;;;;;;3.72;1.60;;;;;;;17.84;61.80;100284.81;3683754;77;20989;-75
2022/07/10 05:48:05;;;;;;;4.58;1.82;;;;;;;18.10;61.45;100286.09;3592219;76;20971;-75
2022/07/10 05:52:58;;;;;;;2.85;1.52;;;;;;;18.14;60.64;100273.28;3628500;77;20926;-75
2022/07/10 05:57:50;;;;;;;3.02;1.72;;;;;;;18.31;60.35;100265.47;3660364;77;20937;-75
2022/07/10 06:02:43;;;;;;;2.98;1.60;;;;;;;18.70;59.84;100261.05;3627740;76;20966;-75
2022/07/10 06:07:35;;;;;;;3.35;2.25;;;;;;;18.83;58.98;100264.28;3656306;77;20910;-75
2022/07/10 06:12:27;;;;;;;1.98;1.50;;;;;;;18.96;59.02;100274.09;3611984;77;20957;-75
2022/07/10 06:17:19;;;;;;;3.12;1.57;;;;;;;19.12;58.40;100275.86;3624790;77;20906;-75
2022/07/10 06:27:22;;;;;;;2.27;1.37;;;;;;;19.16;57.90;100280.17;3634799;76;20977;-75
2022/07/10 06:32:14;;;;;;;3.58;1.55;;;;;;;18.96;57.40;100276.27;3599729;76;20949;-75
2022/07/10 06:37:06;;;;;;;3.05;1.40;;;;;;;18.87;57.46;100271.23;3555982;77;20938;-75
2022/07/10 06:42:00;;;;;;;2.33;1.57;;;;;;;18.64;57.54;100276.55;3605718;77;20919;-75
2022/07/10 06:52:05;;;;;;;1.77;1.55;;;;;;;18.54;58.02;100265.81;3593200;77;20997;-76
2022/07/10 06:56:57;;;;;;;3.52;1.65;;;;;;;18.38;58.05;100277.59;3638467;77;22225;-76
2022/07/10 07:01:49;;;;;;;2.17;1.40;;;;;;;18.25;57.93;100279.17;3608771;77;21440;-76
2022/07/10 07:06:41;;;;;;;2.77;1.40;;;;;;;18.11;58.50;100282.55;3595893;77;20969;-76
2022/07/10 07:11:33;;;;;;;2.83;2.52;;;;;;;18.12;58.77;100266.30;3618153;77;20954;-76
2022/07/10 07:16:41;;;;;;;2.22;1.42;;;;;;;18.31;58.27;100265.01;3617919;76;44012;-76
2022/07/10 07:26:49;;;;;;;3.15;2.00;;;;;;;19.20;57.52;100272.59;3598390;77;21020;-76
2022/07/10 07:31:41;;;;;;;2.77;1.55;;;;;;;20.44;56.39;100258.13;3623948;77;21428;-76
2022/07/10 07:36:34;;;;;;;2.77;1.90;;;;;;;20.74;55.80;100260.30;3627457;77;21649;-76
2022/07/10 07:41:26;;;;;;;3.40;2.05;;;;;;;23.22;51.51;100253.29;3558468;76;21009;-76
2022/07/10 07:46:19;;;;;;;6.08;2.10;;;;;;;23.35;51.78;100256.27;3601388;77;20984;-76
2022/07/10 07:51:13;;;;;;;3.12;1.70;;;;;;;22.78;51.86;100249.35;3616938;77;21005;-77
2022/07/10 07:56:05;;;;;;;2.37;1.60;;;;;;;25.23;48.58;100243.94;3589939;77;21476;-76
2022/07/10 08:00:58;;;;;;;3.60;1.72;;;;;;;24.54;49.11;100242.48;3576748;77;20997;-76
2022/07/10 08:05:50;;;;;;;1.72;1.47;;;;;;;23.40;49.52;100257.41;3618621;77;20950;-76
2022/07/10 08:10:43;;;;;;;2.35;1.27;;;;;;;22.92;49.25;100247.93;3574180;76;20953;-76
2022/07/10 08:15:35;;;;;;;2.40;1.50;;;;;;;23.63;46.84;100253.74;3558737;76;21621;-77
2022/07/10 08:20:27;;;;;;;3.77;1.80;;;;;;;25.25;43.76;100238.09;3633616;76;20954;-74
2022/07/10 08:25:20;;;;;;;5.15;1.50;;;;;;;26.29;42.71;100244.09;3684084;77;22195;-74
2022/07/10 08:30:13;;;;;;;1.95;1.37;;;;;;;25.04;43.86;100246.22;3635237;77;20992;-74
2022/07/10 08:35:07;;;;;;;1.87;1.10;;;;;;;25.20;43.35;100250.73;3602183;77;20952;-74
2022/07/10 08:39:59;;;;;;;2.52;1.22;;;;;;;24.34;44.63;100247.84;3616872;77;20957;-74
2022/07/10 08:44:52;;;;;;;2.37;1.27;;;;;;;23.19;45.08;100254.73;3601951;77;20935;-74
2022/07/10 08:49:47;;;;;;;3.58;1.30;;;;;;;22.28;46.17;100246.95;3617650;77;21112;-74
2022/07/10 08:54:41;;;;;;;2.40;1.57;;;;;;;22.36;46.09;100250.17;3629326;76;20963;-74
2022/07/10 08:59:33;;;;;;;2.30;1.30;;;;;;;23.44;45.14;100240.42;3581772;77;20927;-74
2022/07/10 09:04:27;;;;;;;3.08;1.45;;;;;;;25.32;42.64;100239.50;3682070;76;21016;-74
2022/07/10 09:09:20;;;;;;;3.62;1.40;;;;;;;24.96;43.11;100248.39;3648757;77;21386;-76
2022/07/10 09:14:17;;;;;;;2.70;1.27;;;;;;;24.39;43.27;100247.63;3620591;76;22014;-76
2022/07/10 09:19:19;;;;;;;2.98;1.47;;;;;;;23.90;42.71;100235.73;3613926;76;20953;-75
2022/07/10 09:24:11;;;;;;;2.70;1.27;;;;;;;23.24;43.94;100241.30;3576807;77;20930;-75
2022/07/10 09:29:10;;;;;;;3.60;1.20;;;;;;;22.64;45.12;100237.13;3545242;77;20973;-75
2022/07/10 09:34:03;;;;;;;5.37;1.50;;;;;;;22.15;45.59;100241.23;3607399;77;21013;-75
2022/07/10 09:38:57;;;;;;;5.67;2.25;;;;;;;21.88;46.56;100235.22;3593146;77;21148;-75
2022/07/10 09:44:02;;;;;;;3.10;1.20;;;;;;;22.02;45.58;100233.37;3585744;77;20930;-75
2022/07/10 09:49:11;;;;;;;2.35;1.55;;;;;;;23.19;44.28;100228.22;3616543;76;20945;-75
2022/07/10 09:54:06;;;;;;;3.22;1.45;;;;;;;24.25;43.38;100223.94;3642235;77;20931;-75
2022/07/10 09:59:01;;;;;;;4.33;1.25;;;;;;;27.77;40.39;100207.77;3529914;76;20962;-76
2022/07/10 10:03:57;;;;;;;2.50;1.00;;;;;;;26.65;41.09;100208.33;3577952;77;21350;-75
2022/07/10 10:09:10;;;;;;;2.17;1.30;;;;;;;25.87;39.68;100206.41;3563799;77;21503;-75
2022/07/10 10:14:03;;;;;;;2.92;1.55;;;;;;;24.20;41.36;100221.96;3591010;77;21004;-75
2022/07/10 10:24:06;;;;;;;2.65;1.37;;;;;;;22.28;43.80;100209.87;3659984;77;21709;-75
2022/07/10 10:29:01;;;;;;;4.17;1.75;;;;;;;22.23;44.57;100214.02;3632152;77;21638;-75
2022/07/10 10:34:00;;;;;;;2.35;1.40;;;;;;;21.55;45.68;100211.72;3614054;77;20936;-76
2022/07/10 10:38:58;;;;;;;7.72;2.10;;;;;;;20.91;47.19;100226.27;3611494;77;21487;-75
2022/07/10 10:44:17;;;;;;;3.35;1.20;;;;;;;20.23;48.26;100227.97;3615507;77;20996;-75
2022/07/10 10:49:10;;;;;;;3.72;1.27;;;;;;;20.00;49.05;100229.55;3635269;77;20996;-77
2022/07/10 10:54:05;;;;;;;3.10;1.27;;;;;;;19.90;49.22;100232.05;3568561;77;20951;-76
2022/07/10 10:58:58;;;;;;;3.33;1.40;;;;;;;19.77;49.23;100236.81;3599591;77;20950;-76
2022/07/10 11:04:15;;;;;;;1.37;1.10;;;;;;;19.57;50.80;100239.98;3611486;77;20957;-76
2022/07/10 11:09:29;;;;;;;3.55;1.45;;;;;;;19.40;51.97;100236.02;3689982;77;21520;-76
2022/07/10 11:14:27;;;;;;;1.92;1.20;;;;;;;19.59;52.67;100232.44;3610663;77;21423;-76
2022/07/10 11:19:23;;;;;;;2.83;0.88;;;;;;;20.03;52.36;100217.59;3656626;77;22272;-75
2022/07/10 11:24:39;;;;;;;1.55;0.90;;;;;;;20.45;49.78;100214.52;3651381;77;20949;-77
2022/07/10 11:29:39;;;;;;;1.00;0.53;;;;;;;21.51;48.54;100200.38;3692853;77;20954;-76
2022/07/10 11:34:36;;;;;;;1.12;0.70;;;;;;;21.73;46.92;100200.06;3657641;77;20965;-76
2022/07/10 11:39:28;;;;;;;2.65;0.80;;;;;;;21.51;46.30;100204.82;3632971;77;21121;-76
2022/07/10 11:44:20;;;;;;;1.67;0.70;;;;;;;21.54;46.00;100207.36;3637757;77;21045;-76
2022/07/10 11:49:14;;;;;;;1.95;0.90;;;;;;;21.72;46.66;100210.26;3592181;77;20961;-76
2022/07/10 11:54:13;;;;;;;1.20;0.80;;;;;;;21.74;45.12;100204.44;3598292;77;20961;-76
2022/07/10 11:59:11;;;;;;;3.02;0.85;;;;;;;21.24;45.81;100214.11;3612676;76;20961;-76
2022/07/10 12:04:06;;;;;;;2.02;0.90;;;;;;;20.76;46.58;100210.91;3665392;77;20934;-76
2022/07/10 12:09:09;;;;;;;1.75;0.80;;;;;;;20.69;46.18;100210.27;3613709;77;21114;-76
2022/07/10 12:14:19;;;;;;;1.27;0.60;;;;;;;21.49;47.29;100206.66;3682220;76;20997;-76
2022/07/10 12:19:17;;;;;;;3.50;0.93;;;;;;;22.22;45.67;100194.21;3625001;76;20912;-76
2022/07/10 12:24:10;;;;;;;3.08;1.10;;;;;;;22.49;44.14;100197.56;3592428;76;20977;-76
2022/07/10 12:29:04;;;;;;;1.17;0.80;;;;;;;23.42;43.85;100177.29;3550855;76;20914;-76
2022/07/10 12:34:04;;;;;;;3.55;1.12;;;;;;;23.98;43.42;100183.15;3643634;76;21584;-76
2022/07/10 12:38:58;;;;;;;1.85;0.85;;;;;;;22.91;43.18;100193.19;3645693;76;20946;-76
2022/07/10 12:43:51;;;;;;;2.40;0.95;;;;;;;22.04;43.94;100194.00;3605740;76;20954;-76
2022/07/10 12:49:03;;;;;;;1.20;0.70;;;;;;;22.69;44.06;100198.06;3636384;76;20986;-76
2022/07/10 12:53:56;;;;;;;2.42;1.32;;;;;;;23.52;41.75;100194.52;3643066;77;20984;-76
2022/07/10 12:58:48;;;;;;;1.62;0.80;;;;;;;23.85;41.41;100195.25;3592457;77;21543;-76
2022/07/10 13:03:40;;;;;;;1.67;0.90;;;;;;;23.85;40.64;100195.25;3660357;76;20955;-76
2022/07/10 13:08:44;;;;;;;1.90;1.20;;;;;;;24.08;41.24;100199.48;3602635;76;20942;-76
2022/07/10 13:13:37;;;;;;;1.07;0.80;;;;;;;24.29;41.47;100186.98;3673549;76;21727;-76
2022/07/10 13:18:30;;;;;;;2.83;0.90;;;;;;;23.81;41.10;100208.77;3645272;76;20937;-76
2022/07/10 13:23:23;;;;;;;3.60;0.85;;;;;;;22.92;42.02;100207.70;3593302;75;20982;-76
2022/07/10 13:28:16;;;;;;;2.62;0.90;;;;;;;22.53;42.27;100211.55;3632474;75;20981;-76
2022/07/10 13:33:09;;;;;;;1.75;0.90;;;;;;;22.25;42.80;100222.75;3631168;75;20907;-76
2022/07/10 13:38:04;;;;;;;1.52;0.68;;;;;;;21.89;43.32;100229.88;3651905;77;21005;-77
2022/07/10 13:42:59;;;;;;;3.10;1.27;;;;;;;21.68;43.62;100234.17;3596804;77;20939;-76
2022/07/10 13:47:53;;;;;;;2.37;1.25;;;;;;;21.54;44.47;100228.52;3644638;77;21865;-76
2022/07/10 13:52:45;;;;;;;0.95;0.90;;;;;;;21.72;44.38;100234.92;3582183;77;21058;-76
2022/07/10 13:57:37;;;;;;;2.25;1.00;;;;;;;21.84;44.50;100220.38;3623613;76;20971;-76
2022/07/10 14:02:30;;;;;;;3.40;1.40;;;;;;;21.80;44.91;100229.33;3648139;75;21044;-76
2022/07/10 14:07:22;;;;;;;2.33;0.75;;;;;;;21.60;45.46;100240.66;3623954;75;20970;-76
2022/07/10 14:12:14;;;;;;;0.60;0.60;;;;;;;21.26;45.59;100259.86;3641885;75;21044;-76
2022/07/10 14:17:07;;;;;;;1.32;0.70;;;;;;;20.57;45.83;100261.67;3645027;76;21508;-76
2022/07/10 14:21:59;;;;;;;2.60;0.80;;;;;;;20.04;48.05;100274.72;3595469;76;20961;-76
2022/07/10 14:26:52;;;;;;;4.10;0.98;;;;;;;19.57;49.58;100277.77;3609407;76;20961;-76
2022/07/10 14:31:48;;;;;;;2.40;1.05;;;;;;;19.29;50.57;100278.08;3608071;77;20930;-76
2022/07/10 14:36:39;;;;;;;2.50;1.25;;;;;;;19.23;51.20;100273.38;3616426;76;21679;-76
2022/07/10 14:41:31;;;;;;;1.80;1.00;;;;;;;19.91;51.90;100270.72;3619734;77;20951;-76
2022/07/10 14:46:23;;;;;;;2.52;1.75;;;;;;;20.78;51.59;100257.95;3586734;77;21066;-76
2022/07/10 14:51:16;;;;;;;1.37;0.90;;;;;;;21.50;50.21;100262.62;3615964;76;20910;-76
2022/07/10 14:56:10;;;;;;;1.00;0.90;;;;;;;21.87;49.50;100263.91;3661195;76;21094;-76
2022/07/10 15:01:02;;;;;;;1.07;0.82;;;;;;;21.66;49.03;100274.84;3608019;76;21417;-76
2022/07/10 15:05:56;;;;;;;1.25;0.82;;;;;;;21.88;49.63;100270.94;3626177;76;21494;-76
2022/07/10 15:10:49;;;;;;;1.17;0.70;;;;;;;21.80;48.25;100266.38;3620208;76;20965;-76
2022/07/10 15:15:42;;;;;;;0.50;0.50;;;;;;;21.46;48.80;100276.41;3588176;76;20977;-76
2022/07/10 15:20:36;;;;;;;1.42;0.70;;;;;;;21.95;48.66;100280.38;3619168;76;21404;-76
2022/07/10 15:25:29;;;;;;;1.27;0.60;;;;;;;22.18;47.57;100289.25;3650306;77;21040;-76
2022/07/10 15:30:21;;;;;;;2.00;0.82;;;;;;;21.56;48.24;100277.41;3593650;76;21419;-76
2022/07/10 15:35:14;;;;;;;0.90;0.60;;;;;;;21.16;48.78;100290.20;3665239;77;20972;-76
2022/07/10 15:40:07;;;;;;;0.57;0.53;;;;;;;20.87;48.79;100285.42;3635502;76;20990;-76
2022/07/10 15:45:00;;;;;;;0.70;0.70;;;;;;;20.80;49.39;100289.61;3642989;75;20992;-76
2022/07/10 15:49:53;;;;;;;0.98;0.78;;;;;;;20.55;49.05;100287.27;3667096;75;20945;-76
2022/07/10 15:54:46;;;;;;;1.05;0.80;;;;;;;20.13;49.29;100292.92;3662759;77;21436;-76
2022/07/10 15:59:40;;;;;;;1.30;0.78;;;;;;;19.86;49.93;100293.73;3545134;78;21456;-75
2022/07/10 16:04:32;;;;;;;2.22;0.70;;;;;;;19.61;50.41;100299.64;3653565;77;21400;-76
2022/07/10 16:09:24;;;;;;;0.95;0.65;;;;;;;19.71;50.60;100289.26;3642654;77;20914;-76
2022/07/10 16:14:18;;;;;;;1.32;0.68;;;;;;;19.70;51.28;100291.47;3646668;77;21017;-76
2022/07/10 16:19:11;;;;;;;1.25;0.70;;;;;;;19.57;51.76;100296.68;3641588;77;20949;-76
2022/07/10 16:24:04;;;;;;;1.20;0.70;;;;;;;19.67;52.09;100285.41;3679164;77;20989;-76
2022/07/10 16:28:56;;;;;;;1.47;0.70;;;;;;;20.00;52.36;100284.96;3672861;76;20945;-76
2022/07/10 16:33:49;;;;;;;2.55;0.90;;;;;;;20.25;51.50;100269.27;3650045;77;20937;-76
2022/07/10 16:38:41;;;;;;;1.05;0.70;;;;;;;20.55;50.94;100263.50;3620944;77;21247;-76
2022/07/10 16:43:33;;;;;;;0.47;0.45;;;;;;;20.21;50.56;100268.96;3660343;77;20953;-76
2022/07/10 16:48:27;;;;;;;0.45;0.45;;;;;;;20.10;49.97;100256.08;3618452;77;20961;-76
2022/07/10 16:53:22;;;;;;;1.10;0.70;;;;;;;19.70;50.29;100273.01;3621023;77;20980;-76
2022/07/10 16:58:14;;;;;;;0.80;0.40;;;;;;;19.30;49.72;100278.05;3600802;77;20898;-76
2022/07/10 17:03:06;;;;;;;0.50;0.50;;;;;;;18.97;50.31;100284.56;3643422;76;20953;-76
2022/07/10 17:07:58;;;;;;;0.70;0.70;;;;;;;18.91;50.61;100290.46;3642349;77;20969;-76
2022/07/10 17:12:51;;;;;;;0.65;0.65;;;;;;;18.67;51.04;100290.97;3619110;77;20933;-76
2022/07/10 17:17:45;;;;;;;1.25;0.70;;;;;;;18.56;51.39;100298.69;3634011;76;20949;-76
2022/07/10 17:22:39;;;;;;;0.98;0.70;;;;;;;18.42;51.49;100295.03;3602471;75;21469;-76
2022/07/10 17:27:31;;;;;;;0.82;0.80;;;;;;;18.36;51.48;100309.66;3622500;77;21206;-76
2022/07/10 17:32:24;;;;;;;3.08;1.47;;;;;;;18.26;51.47;100324.77;3667717;76;22103;-76
2022/07/10 17:37:16;;;;;;;2.62;2.42;;;;;;;18.12;51.63;100330.33;3600815;76;21476;-76
2022/07/10 17:42:08;;;;;;;1.35;1.25;;;;;;;17.91;51.88;100332.48;3694037;76;20978;-76
2022/07/10 17:47:00;;;;;;;1.45;1.35;;;;;;;17.86;51.97;100335.64;3667054;76;20921;-76
2022/07/10 17:51:53;;;;;;;1.02;0.80;;;;;;;17.84;52.16;100326.03;3668741;76;21010;-76
2022/07/10 17:56:45;;;;;;;0.60;0.55;;;;;;;17.75;52.53;100331.01;3632451;76;20968;-76
2022/07/10 18:01:37;;;;;;;0.75;0.72;;;;;;;17.85;52.81;100340.50;3623125;76;20947;-75
2022/07/10 18:06:29;;;;;;;3.85;2.08;;;;;;;17.75;52.53;100336.27;3622228;76;20961;-75
2022/07/10 18:11:22;;;;;;;1.10;0.75;;;;;;;17.62;52.83;100345.29;3616387;76;21265;-75
2022/07/10 18:16:17;;;;;;;1.32;1.22;;;;;;;17.38;53.48;100346.56;3644496;77;21015;-75
2022/07/10 18:21:11;;;;;;;0.90;0.88;;;;;;;17.18;54.06;100349.53;3645808;77;20956;-75
2022/07/10 18:26:05;;;;;;;1.47;0.70;;;;;;;16.94;54.34;100356.91;3609448;77;20917;-75
2022/07/10 18:30:57;;;;;;;0.65;0.60;;;;;;;16.76;55.00;100361.49;3627422;76;20988;-75
2022/07/10 18:35:49;;;;;;;0.88;0.53;;;;;;;16.61;55.85;100364.77;3629752;76;21071;-75
2022/07/10 18:40:42;;;;;;;1.05;0.60;;;;;;;16.45;56.34;100378.53;3569312;76;20958;-75
2022/07/10 18:45:34;;;;;;;0.88;0.55;;;;;;;16.28;57.35;100366.50;3644170;76;20969;-75
2022/07/10 18:50:26;;;;;;;3.02;0.60;;;;;;;16.12;57.54;100376.30;3610209;76;21632;-75
2022/07/10 18:55:18;;;;;;;1.00;0.57;;;;;;;16.04;58.28;100377.27;3606067;76;20932;-75
2022/07/10 19:00:12;;;;;;;1.17;0.60;;;;;;;15.90;58.40;100386.16;3590340;76;20939;-76
2022/07/10 19:05:06;;;;;;;1.85;0.60;;;;;;;15.71;58.92;100381.95;3639075;77;21477;-76
2022/07/10 19:10:04;;;;;;;1.25;0.62;;;;;;;15.67;59.41;100385.45;3625649;76;21428;-76
2022/07/10 19:14:56;;;;;;;0.55;0.50;;;;;;;15.64;59.60;100389.84;3638551;76;21527;-75
2022/07/10 19:19:49;;;;;;;0.60;0.60;;;;;;;15.53;59.83;100394.32;3593363;76;20989;-75
2022/07/10 19:24:41;;;;;;;1.85;0.90;;;;;;;15.45;60.27;100389.57;3644824;77;20943;-75
2022/07/10 19:29:34;;;;;;;1.02;0.70;;;;;;;15.39;60.44;100397.05;3577835;77;20959;-75
2022/07/10 19:34:26;;;;;;;1.22;0.70;;;;;;;15.36;60.66;100400.13;3586058;77;20919;-75
2022/07/10 19:39:18;;;;;;;2.27;0.70;;;;;;;15.27;61.01;100405.45;3559668;77;20900;-76
2022/07/10 19:44:11;;;;;;;3.45;0.88;;;;;;;15.17;61.10;100402.89;3593506;76;20953;-76
2022/07/10 19:49:06;;;;;;;1.35;0.90;;;;;;;15.06;61.69;100408.66;3549896;77;21499;-75
2022/07/10 19:53:58;;;;;;;1.22;1.07;;;;;;;14.98;62.09;100415.67;3612461;77;21131;-76
2022/07/10 19:58:50;;;;;;;1.32;1.22;;;;;;;14.87;62.42;100409.19;3623309;77;20919;-75
2022/07/10 20:03:43;;;;;;;1.35;1.20;;;;;;;14.85;62.74;100412.27;3571704;77;20967;-75
2022/07/10 20:08:36;;;;;;;2.15;1.32;;;;;;;14.80;63.11;100414.03;3589621;77;20967;-76
2022/07/10 20:13:28;;;;;;;2.95;1.37;;;;;;;14.69;63.60;100418.01;3588916;76;20946;-75
2022/07/10 20:18:20;;;;;;;1.40;1.30;;;;;;;14.65;63.92;100423.69;3587336;77;20950;-75
2022/07/10 20:23:12;;;;;;;1.75;1.37;;;;;;;14.58;63.94;100432.89;3669032;75;21544;-76
2022/07/10 20:28:05;;;;;;;2.77;0.95;;;;;;;14.57;64.28;100435.03;3655854;76;20967;-75
2022/07/10 20:32:57;;;;;;;1.22;1.12;;;;;;;14.51;64.67;100446.84;3601027;76;21459;-76
2022/07/10 20:37:49;;;;;;;1.82;1.10;;;;;;;14.47;65.27;100442.92;3581633;76;20966;-75
2022/07/10 20:42:42;;;;;;;3.25;1.45;;;;;;;14.45;65.19;100439.44;3594548;76;21127;-76
2022/07/10 20:47:34;;;;;;;3.35;1.40;;;;;;;14.43;65.44;100435.97;3628338;76;20947;-76
2022/07/10 20:52:27;;;;;;;2.58;1.30;;;;;;;14.42;65.49;100439.89;3605534;76;20994;-76
2022/07/10 20:57:19;;;;;;;2.20;1.10;;;;;;;14.38;65.78;100448.19;3578205;76;21670;-76
2022/07/10 21:02:11;;;;;;;1.75;1.30;;;;;;;14.38;66.00;100442.95;3591450;77;20982;-76
2022/07/10 21:07:04;;;;;;;1.92;0.93;;;;;;;14.26;65.93;100436.45;3646957;77;20982;-76
2022/07/10 21:11:56;;;;;;;4.03;1.30;;;;;;;14.24;66.39;100434.28;3648340;76;20957;-76
2022/07/10 21:16:48;;;;;;;2.45;2.22;;;;;;;14.16;66.60;100434.72;3663583;76;21861;-76
2022/07/10 21:21:40;;;;;;;1.20;1.12;;;;;;;14.04;66.79;100429.96;3620359;76;21660;-76
2022/07/10 21:26:32;;;;;;;2.70;1.40;;;;;;;14.06;67.13;100425.59;3576639;76;20918;-76
2022/07/10 21:31:25;;;;;;;2.92;1.60;;;;;;;14.04;67.13;100434.30;3590277;76;21472;-76
2022/07/10 21:36:17;;;;;;;2.20;1.30;;;;;;;14.01;67.08;100439.55;3649497;76;20969;-76
2022/07/10 21:41:09;;;;;;;2.98;1.75;;;;;;;13.97;67.25;100445.62;3594258;76;20980;-76
2022/07/10 21:46:01;;;;;;;1.72;1.62;;;;;;;13.93;67.62;100447.37;3611849;76;20913;-76
2022/07/10 21:50:53;;;;;;;3.08;1.65;;;;;;;13.82;67.76;100444.77;3618001;77;21436;-76
2022/07/10 21:55:45;;;;;;;3.02;1.47;;;;;;;13.78;67.85;100455.25;3609273;77;22437;-76
2022/07/10 22:00:38;;;;;;;3.87;2.10;;;;;;;13.70;68.02;100451.34;3609565;77;20992;-76
2022/07/10 22:05:32;;;;;;;1.70;1.50;;;;;;;13.67;67.88;100456.11;3590636;77;21008;-76
2022/07/10 22:10:24;;;;;;;2.72;1.90;;;;;;;13.64;68.08;100455.24;3614941;76;20961;-76
2022/07/10 22:15:18;;;;;;;2.25;1.60;;;;;;;13.63;68.31;100450.46;3649410;76;20981;-76
2022/07/10 22:20:12;;;;;;;2.62;1.57;;;;;;;13.61;68.27;100457.84;3660022;76;21014;-76
2022/07/10 22:25:07;;;;;;;2.87;1.72;;;;;;;13.53;68.47;100455.23;3611800;76;21468;-76
2022/07/10 22:29:59;;;;;;;2.40;1.90;;;;;;;13.46;68.38;100459.58;3616922;76;21526;-76
2022/07/10 22:34:51;;;;;;;1.82;1.62;;;;;;;13.39;68.34;100453.05;3664127;76;20992;-76
2022/07/10 22:39:44;;;;;;;3.35;2.00;;;;;;;13.36;68.65;100463.07;3648267;76;20995;-77
2022/07/10 22:44:37;;;;;;;2.30;1.60;;;;;;;13.27;68.97;100469.11;3605454;77;22602;-77
2022/07/10 22:49:29;;;;;;;1.50;1.40;;;;;;;13.28;69.43;100455.61;3575440;77;21231;-77
2022/07/10 22:54:21;;;;;;;1.70;1.60;;;;;;;13.27;69.32;100457.36;3626152;77;21004;-77
2022/07/10 22:59:14;;;;;;;2.77;2.10;;;;;;;13.31;69.52;100455.66;3629955;76;20989;-77
2022/07/10 23:04:07;;;;;;;3.77;2.10;;;;;;;13.29;69.53;100457.37;3634267;77;20934;-77
2022/07/10 23:08:59;;;;;;;2.92;1.90;;;;;;;13.32;69.73;100459.99;3592451;76;21012;-77